Ankergracht — PCQL — position and weather

sailwx.info

Track history (hours):
 
Tides and Currents Weather Stations Pressure Air Temp Water Temp Dewpoint Dewpoint Depression Visibility Wind Speed Wind Dir Waves Ship Positions

Ankergracht

Last reported at 2015-Feb-27 14:33 UTC. Time now 2015-Feb-28 02:01 UTC.
Position N 37°49' W 012°36'.

Length 130 m; beam 19 m; draft 9 m.

Type: Ship (hazmat cat A). MMSI: 244852000.

Date/timePositionNaut miles runAvg speedWind from/ knotsBaromVisibWave heightAir tempDewpointWater temp
2015-Feb-27 14:33N 37°49' W 012°36'  
2015-Feb-24 07:32N 50°26' W 000°23'2711.8
2015-Feb-24 05:17N 50°34' E 000°17'710.2
2015-Feb-24 04:33N 50°36' E 000°28'10 9.9
2015-Feb-24 03:33N 50°40' E 000°42'9 9.2
2015-Feb-24 02:33N 50°45' E 000°55'10 9.4
2015-Feb-24 01:30N 50°51' E 001°07'11 9.7
2015-Feb-24 00:22N 50°57' E 001°21'1012.4
2015-Feb-23 23:33N 51°05' E 001°32'1413.8
2015-Feb-23 22:33N 51°15' E 001°47'1312.9
2015-Feb-23 21:33N 51°26' E 001°58'1211.6
2015-Feb-23 20:33N 51°35' E 002°10'1110.8
2015-Feb-23 19:33N 51°43' E 002°22'11511.4
2015-Feb-23 09:28N 53°11' E 004°23'1011.1
2015-Feb-23 08:33N 53°20' E 004°31'1010.4
2015-Feb-23 07:33N 53°29' E 004°41'1010.1
2015-Feb-23 06:33N 53°32' E 004°56'1211.5
2015-Feb-23 05:33N 53°36' E 005°15'1212.2
2015-Feb-23 04:33N 53°40' E 005°34'1111.5
2015-Feb-23 03:33N 53°44' E 005°52'1411.4
2015-Feb-23 02:21N 53°49' E 006°14'4210.9
2015-Feb-22 22:33N 53°59' E 007°22'1010.5
2015-Feb-22 21:33N 53°59' E 007°40'1111.1
2015-Feb-22 20:33N 53°52' E 007°54'1413.6
2015-Feb-22 19:33N 53°45' E 008°14'1515.1
2015-Feb-22 18:33N 53°34' E 008°32'1211.8
2015-Feb-22 17:33N 53°23' E 008°30'1211.5
2015-Feb-22 16:33N 53°11' E 008°33'8 8.3
2015-Feb-22 15:33N 53°06' E 008°44'0 0.5
2015-Feb-22 14:33N 53°06' E 008°45'0 0.0
2015-Feb-22 13:33N 53°06' E 008°45'0 0.0
2015-Feb-22 12:33N 53°06' E 008°45'0 0.0
2015-Feb-22 11:33N 53°06' E 008°45'0 0.0
2015-Feb-22 10:33N 53°06' E 008°45'0 0.0
2015-Feb-22 09:32N 53°06' E 008°45'0 0.0
2015-Feb-22 08:32N 53°06' E 008°45'0 0.0
2015-Feb-22 07:32N 53°06' E 008°45'0 0.0
2015-Feb-22 06:32N 53°06' E 008°45'0 0.0
2015-Feb-22 05:32N 53°06' E 008°45'0 0.0
2015-Feb-22 04:32N 53°06' E 008°45'0 0.0
2015-Feb-22 03:32N 53°06' E 008°45'0 0.0
2015-Feb-22 02:32N 53°06' E 008°45'0 0.0
2015-Feb-22 01:32N 53°06' E 008°45'0 0.0
2015-Feb-22 00:32N 53°06' E 008°45'0 0.0
2015-Feb-21 23:32N 53°06' E 008°45'0 0.0
2015-Feb-21 22:32N 53°06' E 008°45'0 0.0
2015-Feb-21 21:32N 53°06' E 008°45'0 0.0
2015-Feb-21 20:32N 53°06' E 008°45'0 0.0
2015-Feb-21 19:32N 53°06' E 008°45'0 0.0
2015-Feb-21 18:32N 53°06' E 008°45'0 0.0
2015-Feb-21 17:32N 53°06' E 008°45'0 0.0
2015-Feb-21 16:32N 53°06' E 008°45'0 0.0
2015-Feb-21 15:32N 53°06' E 008°45'0 0.0
2015-Feb-21 14:32N 53°06' E 008°45'0 0.0
2015-Feb-21 13:32N 53°06' E 008°45'0 0.0
2015-Feb-21 12:32N 53°06' E 008°45'0 0.0
2015-Feb-21 11:32N 53°06' E 008°45'0 0.0
2015-Feb-21 10:32N 53°06' E 008°45'0 0.0
2015-Feb-21 09:32N 53°06' E 008°45'0 0.0
2015-Feb-21 08:32N 53°06' E 008°45'0 0.0
2015-Feb-21 07:32N 53°06' E 008°45'0 0.0
2015-Feb-21 06:32N 53°06' E 008°45'0 0.0
2015-Feb-21 05:32N 53°06' E 008°45'0 0.0
2015-Feb-21 04:32N 53°06' E 008°45'0 0.0
2015-Feb-21 03:32N 53°06' E 008°45'0 0.0
2015-Feb-21 02:32N 53°06' E 008°45'0 0.0
2015-Feb-21 01:32N 53°06' E 008°45'0 0.0
2015-Feb-21 00:32N 53°06' E 008°45'0 0.0
2015-Feb-20 23:32N 53°06' E 008°45'0 0.0
2015-Feb-20 22:31N 53°06' E 008°45'0 0.0
2015-Feb-20 21:31N 53°06' E 008°45'0 0.0
2015-Feb-20 20:31N 53°06' E 008°45'0 0.0
2015-Feb-20 19:31N 53°06' E 008°45'0 0.0
2015-Feb-20 18:31N 53°06' E 008°45'0 0.0
2015-Feb-20 17:31N 53°06' E 008°45'0 0.0
2015-Feb-20 16:31N 53°06' E 008°45'0 0.0
2015-Feb-20 15:31N 53°06' E 008°45'0 0.0
2015-Feb-20 14:31N 53°06' E 008°45'0 0.0
2015-Feb-20 13:31N 53°06' E 008°45'0 0.0
2015-Feb-20 12:31N 53°06' E 008°45'0 0.0
2015-Feb-20 11:31N 53°06' E 008°45'0 0.0
2015-Feb-20 10:31N 53°06' E 008°45'0 0.0
2015-Feb-20 09:31N 53°06' E 008°45'0 0.0
2015-Feb-20 08:31N 53°06' E 008°45'0 0.0
2015-Feb-20 07:31N 53°06' E 008°45'0 0.0
2015-Feb-20 06:31N 53°06' E 008°45'0 0.0
2015-Feb-20 05:31N 53°06' E 008°45'0 0.0
2015-Feb-20 04:31N 53°06' E 008°45'0 0.0
2015-Feb-20 03:31N 53°06' E 008°45'0 0.0
2015-Feb-20 02:28N 53°06' E 008°45'0 0.0
2015-Feb-20 01:31N 53°06' E 008°45'0 0.0
2015-Feb-20 00:31N 53°06' E 008°45'0 0.0
2015-Feb-19 23:31N 53°06' E 008°45'0 0.0
2015-Feb-19 22:31N 53°06' E 008°45'1 1.2
2015-Feb-19 21:33N 53°07' E 008°43'9 9.5
2015-Feb-19 20:33N 53°12' E 008°30'1010.4
2015-Feb-19 19:34N 53°23' E 008°30'1010.3
2015-Feb-19 18:33N 53°33' E 008°34'1110.7
2015-Feb-19 17:33N 53°41' E 008°22'1212.0
2015-Feb-19 16:33N 53°49' E 008°07'1312.6
2015-Feb-19 15:33N 53°53' E 007°46'9 9.3
2015-Feb-19 14:33N 54°02' E 007°42'1414.1
2015-Feb-19 13:34N 54°01' E 008°06'1313.4
2015-Feb-19 12:34N 53°59' E 008°28'1110.9
2015-Feb-19 11:34N 53°52' E 008°43'1010.3
2015-Feb-19 10:34N 53°52' E 009°01'1010.4
2015-Feb-19 09:33N 53°51' E 009°19'1515.5
2015-Feb-19 08:34N 53°38' E 009°32'1413.9
2015-Feb-19 07:33N 53°33' E 009°54'3 3.5
2015-Feb-19 06:33N 53°32' E 009°59'0 0.0
2015-Feb-19 05:33N 53°32' E 009°59'0 0.0
2015-Feb-19 04:27N 53°32' E 009°59'0 0.0
2015-Feb-19 03:33N 53°32' E 009°59'0 0.0
2015-Feb-19 02:33N 53°32' E 009°59'0 0.0
2015-Feb-19 01:33N 53°32' E 009°59'0 0.0
2015-Feb-19 00:33N 53°32' E 009°59'0 0.0
2015-Feb-18 23:33N 53°32' E 009°59'0 0.0
2015-Feb-18 22:33N 53°32' E 009°59'0 0.0
2015-Feb-18 21:33N 53°32' E 009°59'0 0.0
2015-Feb-18 20:33N 53°32' E 009°59'0 0.0
2015-Feb-18 19:33N 53°32' E 009°59'0 0.0
2015-Feb-18 18:30N 53°32' E 009°59'0 0.0
2015-Feb-18 17:33N 53°32' E 009°59'0 0.0
2015-Feb-18 16:33N 53°32' E 009°59'0 0.0
2015-Feb-18 15:32N 53°32' E 009°59'0 0.0
2015-Feb-18 14:34N 53°32' E 009°59'6 6.0
2015-Feb-18 13:34N 53°33' E 009°49'1413.8
2015-Feb-18 12:33N 53°41' E 009°30'1515.6
2015-Feb-18 11:33N 53°53' E 009°13'1615.6
2015-Feb-18 10:33N 53°51' E 008°47'1514.5
2015-Feb-18 09:34N 53°59' E 008°27'1514.7
2015-Feb-18 08:33N 53°58' E 008°02'1515.6
2015-Feb-18 07:33N 53°55' E 007°36'1615.5
2015-Feb-18 06:31N 53°52' E 007°09'4414.8
2015-Feb-18 03:33N 53°40' E 005°58'1413.8
2015-Feb-18 02:33N 53°36' E 005°36'1313.3
2015-Feb-18 01:33N 53°31' E 005°15'1313.1
2015-Feb-18 00:33N 53°27' E 004°54'1212.3
2015-Feb-17 23:33N 53°19' E 004°38'1313.0
2015-Feb-17 22:33N 53°07' E 004°28'1513.0
2015-Feb-17 21:23N 52°54' E 004°17'1212.6
2015-Feb-17 20:26N 52°44' E 004°06'1212.6
2015-Feb-17 19:30N 52°34' E 003°56'2412.3
2015-Feb-17 17:33N 52°10' E 003°55'9 9.4
2015-Feb-17 16:33N 52°01' E 003°59'1413.6
2015-Feb-17 15:34N 51°54' E 004°18'  
Track history (hours):
 
Tides and Currents Weather Stations Pressure Air Temp Water Temp Dewpoint Dewpoint Depression Visibility Wind Speed Wind Dir Waves Ship Positions

Ankergracht

Last reported at 2015-Feb-27 14:33 UTC. Time now 2015-Feb-28 02:01 UTC.
Position N 37°49' W 012°36'.

Length 130 m; beam 19 m; draft 9 m.

Type: Ship (hazmat cat A). MMSI: 244852000.

Date/timePositionNaut miles runAvg speedWind from/ knotsBaromVisibWave heightAir tempDewpointWater temp
2015-Feb-27 14:33N 37°49' W 012°36'  
2015-Feb-24 07:32N 50°26' W 000°23'2711.8
2015-Feb-24 05:17N 50°34' E 000°17'710.2
2015-Feb-24 04:33N 50°36' E 000°28'10 9.9
2015-Feb-24 03:33N 50°40' E 000°42'9 9.2
2015-Feb-24 02:33N 50°45' E 000°55'10 9.4
2015-Feb-24 01:30N 50°51' E 001°07'11 9.7
2015-Feb-24 00:22N 50°57' E 001°21'1012.4
2015-Feb-23 23:33N 51°05' E 001°32'1413.8
2015-Feb-23 22:33N 51°15' E 001°47'1312.9
2015-Feb-23 21:33N 51°26' E 001°58'1211.6
2015-Feb-23 20:33N 51°35' E 002°10'1110.8
2015-Feb-23 19:33N 51°43' E 002°22'11511.4
2015-Feb-23 09:28N 53°11' E 004°23'1011.1
2015-Feb-23 08:33N 53°20' E 004°31'1010.4
2015-Feb-23 07:33N 53°29' E 004°41'1010.1
2015-Feb-23 06:33N 53°32' E 004°56'1211.5
2015-Feb-23 05:33N 53°36' E 005°15'1212.2
2015-Feb-23 04:33N 53°40' E 005°34'1111.5
2015-Feb-23 03:33N 53°44' E 005°52'1411.4
2015-Feb-23 02:21N 53°49' E 006°14'4210.9
2015-Feb-22 22:33N 53°59' E 007°22'1010.5
2015-Feb-22 21:33N 53°59' E 007°40'1111.1
2015-Feb-22 20:33N 53°52' E 007°54'1413.6
2015-Feb-22 19:33N 53°45' E 008°14'1515.1
2015-Feb-22 18:33N 53°34' E 008°32'1211.8
2015-Feb-22 17:33N 53°23' E 008°30'1211.5
2015-Feb-22 16:33N 53°11' E 008°33'8 8.3
2015-Feb-22 15:33N 53°06' E 008°44'0 0.5
2015-Feb-22 14:33N 53°06' E 008°45'0 0.0
2015-Feb-22 13:33N 53°06' E 008°45'0 0.0
2015-Feb-22 12:33N 53°06' E 008°45'0 0.0
2015-Feb-22 11:33N 53°06' E 008°45'0 0.0
2015-Feb-22 10:33N 53°06' E 008°45'0 0.0
2015-Feb-22 09:32N 53°06' E 008°45'0 0.0
2015-Feb-22 08:32N 53°06' E 008°45'0 0.0
2015-Feb-22 07:32N 53°06' E 008°45'0 0.0
2015-Feb-22 06:32N 53°06' E 008°45'0 0.0
2015-Feb-22 05:32N 53°06' E 008°45'0 0.0
2015-Feb-22 04:32N 53°06' E 008°45'0 0.0
2015-Feb-22 03:32N 53°06' E 008°45'0 0.0
2015-Feb-22 02:32N 53°06' E 008°45'0 0.0
2015-Feb-22 01:32N 53°06' E 008°45'0 0.0
2015-Feb-22 00:32N 53°06' E 008°45'0 0.0
2015-Feb-21 23:32N 53°06' E 008°45'0 0.0
2015-Feb-21 22:32N 53°06' E 008°45'0 0.0
2015-Feb-21 21:32N 53°06' E 008°45'0 0.0
2015-Feb-21 20:32N 53°06' E 008°45'0 0.0
2015-Feb-21 19:32N 53°06' E 008°45'0 0.0
2015-Feb-21 18:32N 53°06' E 008°45'0 0.0
2015-Feb-21 17:32N 53°06' E 008°45'0 0.0
2015-Feb-21 16:32N 53°06' E 008°45'0 0.0
2015-Feb-21 15:32N 53°06' E 008°45'0 0.0
2015-Feb-21 14:32N 53°06' E 008°45'0 0.0
2015-Feb-21 13:32N 53°06' E 008°45'0 0.0
2015-Feb-21 12:32N 53°06' E 008°45'0 0.0
2015-Feb-21 11:32N 53°06' E 008°45'0 0.0
2015-Feb-21 10:32N 53°06' E 008°45'0 0.0
2015-Feb-21 09:32N 53°06' E 008°45'0 0.0
2015-Feb-21 08:32N 53°06' E 008°45'0 0.0
2015-Feb-21 07:32N 53°06' E 008°45'0 0.0
2015-Feb-21 06:32N 53°06' E 008°45'0 0.0
2015-Feb-21 05:32N 53°06' E 008°45'0 0.0
2015-Feb-21 04:32N 53°06' E 008°45'0 0.0
2015-Feb-21 03:32N 53°06' E 008°45'0 0.0
2015-Feb-21 02:32N 53°06' E 008°45'0 0.0
2015-Feb-21 01:32N 53°06' E 008°45'0 0.0
2015-Feb-21 00:32N 53°06' E 008°45'0 0.0
2015-Feb-20 23:32N 53°06' E 008°45'0 0.0
2015-Feb-20 22:31N 53°06' E 008°45'0 0.0
2015-Feb-20 21:31N 53°06' E 008°45'0 0.0
2015-Feb-20 20:31N 53°06' E 008°45'0 0.0
2015-Feb-20 19:31N 53°06' E 008°45'0 0.0
2015-Feb-20 18:31N 53°06' E 008°45'0 0.0
2015-Feb-20 17:31N 53°06' E 008°45'0 0.0
2015-Feb-20 16:31N 53°06' E 008°45'0 0.0
2015-Feb-20 15:31N 53°06' E 008°45'0 0.0
2015-Feb-20 14:31N 53°06' E 008°45'0 0.0
2015-Feb-20 13:31N 53°06' E 008°45'0 0.0
2015-Feb-20 12:31N 53°06' E 008°45'0 0.0
2015-Feb-20 11:31N 53°06' E 008°45'0 0.0
2015-Feb-20 10:31N 53°06' E 008°45'0 0.0
2015-Feb-20 09:31N 53°06' E 008°45'0 0.0
2015-Feb-20 08:31N 53°06' E 008°45'0 0.0
2015-Feb-20 07:31N 53°06' E 008°45'0 0.0
2015-Feb-20 06:31N 53°06' E 008°45'0 0.0
2015-Feb-20 05:31N 53°06' E 008°45'0 0.0
2015-Feb-20 04:31N 53°06' E 008°45'0 0.0
2015-Feb-20 03:31N 53°06' E 008°45'0 0.0
2015-Feb-20 02:28N 53°06' E 008°45'0 0.0
2015-Feb-20 01:31N 53°06' E 008°45'0 0.0
2015-Feb-20 00:31N 53°06' E 008°45'0 0.0
2015-Feb-19 23:31N 53°06' E 008°45'0 0.0
2015-Feb-19 22:31N 53°06' E 008°45'1 1.2
2015-Feb-19 21:33N 53°07' E 008°43'9 9.5
2015-Feb-19 20:33N 53°12' E 008°30'1010.4
2015-Feb-19 19:34N 53°23' E 008°30'1010.3
2015-Feb-19 18:33N 53°33' E 008°34'1110.7
2015-Feb-19 17:33N 53°41' E 008°22'1212.0
2015-Feb-19 16:33N 53°49' E 008°07'1312.6
2015-Feb-19 15:33N 53°53' E 007°46'9 9.3
2015-Feb-19 14:33N 54°02' E 007°42'1414.1
2015-Feb-19 13:34N 54°01' E 008°06'1313.4
2015-Feb-19 12:34N 53°59' E 008°28'1110.9
2015-Feb-19 11:34N 53°52' E 008°43'1010.3
2015-Feb-19 10:34N 53°52' E 009°01'1010.4
2015-Feb-19 09:33N 53°51' E 009°19'1515.5
2015-Feb-19 08:34N 53°38' E 009°32'1413.9
2015-Feb-19 07:33N 53°33' E 009°54'3 3.5
2015-Feb-19 06:33N 53°32' E 009°59'0 0.0
2015-Feb-19 05:33N 53°32' E 009°59'0 0.0
2015-Feb-19 04:27N 53°32' E 009°59'0 0.0
2015-Feb-19 03:33N 53°32' E 009°59'0 0.0
2015-Feb-19 02:33N 53°32' E 009°59'0 0.0
2015-Feb-19 01:33N 53°32' E 009°59'0 0.0
2015-Feb-19 00:33N 53°32' E 009°59'0 0.0
2015-Feb-18 23:33N 53°32' E 009°59'0 0.0
2015-Feb-18 22:33N 53°32' E 009°59'0 0.0
2015-Feb-18 21:33N 53°32' E 009°59'0 0.0
2015-Feb-18 20:33N 53°32' E 009°59'0 0.0
2015-Feb-18 19:33N 53°32' E 009°59'0 0.0
2015-Feb-18 18:30N 53°32' E 009°59'0 0.0
2015-Feb-18 17:33N 53°32' E 009°59'0 0.0
2015-Feb-18 16:33N 53°32' E 009°59'0 0.0
2015-Feb-18 15:32N 53°32' E 009°59'0 0.0
2015-Feb-18 14:34N 53°32' E 009°59'6 6.0
2015-Feb-18 13:34N 53°33' E 009°49'1413.8
2015-Feb-18 12:33N 53°41' E 009°30'1515.6
2015-Feb-18 11:33N 53°53' E 009°13'1615.6
2015-Feb-18 10:33N 53°51' E 008°47'1514.5
2015-Feb-18 09:34N 53°59' E 008°27'1514.7
2015-Feb-18 08:33N 53°58' E 008°02'1515.6
2015-Feb-18 07:33N 53°55' E 007°36'1615.5
2015-Feb-18 06:31N 53°52' E 007°09'4414.8
2015-Feb-18 03:33N 53°40' E 005°58'1413.8
2015-Feb-18 02:33N 53°36' E 005°36'1313.3
2015-Feb-18 01:33N 53°31' E 005°15'1313.1
2015-Feb-18 00:33N 53°27' E 004°54'1212.3
2015-Feb-17 23:33N 53°19' E 004°38'1313.0
2015-Feb-17 22:33N 53°07' E 004°28'1513.0
2015-Feb-17 21:23N 52°54' E 004°17'1212.6
2015-Feb-17 20:26N 52°44' E 004°06'1212.6
2015-Feb-17 19:30N 52°34' E 003°56'2412.3
2015-Feb-17 17:33N 52°10' E 003°55'9 9.4
2015-Feb-17 16:33N 52°01' E 003°59'1413.6
2015-Feb-17 15:34N 51°54' E 004°18'  

Dump ship's entire track history